Time;durP1;ratioP1;P1;durP2;ratioP2;P2;SDS_P1;SDS_P2;PMS_P1;PMS_P2;Temp;Humidity;BMP_temperature;BMP_pressure;BME280_temperature;BME280_humidity;BME280_pressure;Samples;Min_cycle;Max_cycle;Signal;HPM_P1;HPM_P2
2023/09/18 00:01:39;;;;;;;25.50;18.95;;;;;;;17.77;100.00;100477.31;4951607;28;20050;-74
2023/09/18 00:04:05;;;;;;;25.50;17.70;;;;;;;17.74;100.00;100476.78;4950855;29;20507;-73
2023/09/18 00:06:30;;;;;;;26.48;18.17;;;;;;;17.71;100.00;100466.06;4951882;28;20039;-75
2023/09/18 00:08:55;;;;;;;24.38;17.95;;;;;;;17.70;100.00;100465.19;4966862;28;20094;-72
2023/09/18 00:11:21;;;;;;;25.15;17.25;;;;;;;17.68;100.00;100467.28;4983339;28;20031;-75
2023/09/18 00:13:46;;;;;;;26.20;16.45;;;;;;;17.67;100.00;100470.16;4966542;28;20035;-74
2023/09/18 00:16:12;;;;;;;27.95;16.75;;;;;;;17.67;100.00;100467.41;4966520;28;20075;-74
2023/09/18 00:18:38;;;;;;;23.17;16.63;;;;;;;17.64;100.00;100465.88;4969445;28;20042;-74
2023/09/18 00:21:04;;;;;;;23.10;16.45;;;;;;;17.65;100.00;100459.34;4971056;28;20038;-74
2023/09/18 00:23:29;;;;;;;24.98;18.17;;;;;;;17.66;100.00;100451.94;4952421;28;20074;-74
2023/09/18 00:25:54;;;;;;;22.17;16.92;;;;;;;17.64;100.00;100443.00;4982984;28;20407;-74
2023/09/18 00:28:20;;;;;;;27.00;17.77;;;;;;;17.62;100.00;100439.53;4951775;28;20046;-74
2023/09/18 00:30:49;;;;;;;25.38;16.80;;;;;;;17.58;100.00;100431.66;4966155;28;20039;-74
2023/09/18 00:33:15;;;;;;;23.77;16.90;;;;;;;17.58;100.00;100423.41;4990988;28;20784;-74
2023/09/18 00:35:40;;;;;;;24.52;16.77;;;;;;;17.57;100.00;100418.03;4969500;28;20138;-74
2023/09/18 00:38:07;;;;;;;26.55;19.40;;;;;;;17.59;100.00;100416.84;4955286;28;20035;-73
2023/09/18 00:40:32;;;;;;;28.58;19.10;;;;;;;17.59;100.00;100414.09;4951132;28;20117;-74
2023/09/18 00:42:57;;;;;;;27.35;19.13;;;;;;;17.56;100.00;100403.44;4982367;28;20437;-74
2023/09/18 00:45:23;;;;;;;24.50;17.02;;;;;;;17.59;100.00;100402.25;4966374;28;20023;-74
2023/09/18 00:47:49;;;;;;;23.58;17.00;;;;;;;17.58;100.00;100395.03;4951588;28;20068;-73
2023/09/18 00:50:14;;;;;;;26.75;17.85;;;;;;;17.58;100.00;100395.03;4951051;28;20090;-74
2023/09/18 00:52:41;;;;;;;22.75;16.30;;;;;;;17.58;100.00;100392.28;4951765;28;20110;-74
2023/09/18 00:55:07;;;;;;;21.48;15.50;;;;;;;17.58;100.00;100389.53;4965728;28;20043;-73
2023/09/18 00:57:33;;;;;;;21.45;14.65;;;;;;;17.57;100.00;100385.03;4966010;28;20027;-74
2023/09/18 00:59:59;;;;;;;23.55;16.30;;;;;;;17.58;100.00;100381.28;4950725;28;20126;-73
2023/09/18 01:02:24;;;;;;;24.33;17.02;;;;;;;17.55;100.00;100376.94;4966588;28;20463;-74
2023/09/18 01:04:50;;;;;;;28.45;15.68;;;;;;;17.54;100.00;100372.50;4981770;28;20043;-74
2023/09/18 01:07:15;;;;;;;27.67;18.67;;;;;;;17.55;100.00;100365.94;4982019;28;20418;-75
2023/09/18 01:09:42;;;;;;;25.80;18.50;;;;;;;17.54;100.00;100352.38;4965705;28;20039;-74
2023/09/18 01:12:26;;;;;;;29.33;17.70;;;;;;;17.55;100.00;100345.84;4981921;28;20483;-74
2023/09/18 01:15:14;;;;;;;25.08;18.10;;;;;;;17.54;100.00;100344.13;4949807;28;20047;-73
2023/09/18 01:17:40;;;;;;;20.52;15.65;;;;;;;17.59;100.00;100350.84;4951034;28;20043;-73
2023/09/18 01:20:09;;;;;;;22.90;15.20;;;;;;;17.55;100.00;100324.69;4950697;28;20034;-73
2023/09/18 01:22:35;;;;;;;22.83;15.27;;;;;;;17.54;100.00;100327.63;4981613;28;20054;-74
2023/09/18 01:25:00;;;;;;;24.00;16.00;;;;;;;17.55;100.00;100326.59;4950432;29;20459;-73
2023/09/18 01:27:25;;;;;;;21.77;15.80;;;;;;;17.53;100.00;100324.00;4981795;28;20499;-72
2023/09/18 01:29:53;;;;;;;22.52;14.75;;;;;;;17.57;100.00;100330.88;4950791;29;20090;-75
2023/09/18 01:32:18;;;;;;;20.80;13.40;;;;;;;17.62;100.00;100329.50;4981335;28;20042;-73
2023/09/18 01:34:50;;;;;;;20.15;14.65;;;;;;;17.65;100.00;100329.19;4980636;28;20036;-73
2023/09/18 01:37:20;;;;;;;17.67;13.37;;;;;;;17.68;100.00;100332.47;4950615;28;20066;-74
2023/09/18 01:39:48;;;;;;;21.65;14.35;;;;;;;17.74;100.00;100340.06;4964958;28;20035;-75
2023/09/18 01:42:13;;;;;;;21.58;14.02;;;;;;;17.75;100.00;100347.28;4981004;28;20055;-73
2023/09/18 01:44:39;;;;;;;19.70;13.27;;;;;;;17.76;100.00;100346.22;4948673;29;20562;-74
2023/09/18 01:47:08;;;;;;;19.95;12.82;;;;;;;17.79;100.00;100348.66;4981299;28;20035;-73
2023/09/18 01:49:36;;;;;;;22.08;12.63;;;;;;;17.84;100.00;100345.41;4949177;29;20622;-74
2023/09/18 01:52:02;;;;;;;19.50;11.63;;;;;;;17.85;100.00;100347.09;4950439;28;20025;-73
2023/09/18 01:54:29;;;;;;;16.92;12.35;;;;;;;17.90;100.00;100339.19;4948970;28;20045;-74
2023/09/18 01:56:55;;;;;;;22.50;12.50;;;;;;;17.90;100.00;100333.69;4954365;28;20035;-73
2023/09/18 01:59:21;;;;;;;18.00;11.38;;;;;;;17.92;100.00;100330.78;4968196;28;20086;-74
2023/09/18 02:01:47;;;;;;;18.75;12.27;;;;;;;17.98;100.00;100332.84;4964069;28;20129;-73
2023/09/18 02:04:13;;;;;;;16.52;11.10;;;;;;;17.97;100.00;100320.97;4950138;28;20070;-75
2023/09/18 02:06:39;;;;;;;20.20;11.43;;;;;;;18.02;100.00;100329.59;4965018;28;20035;-73
2023/09/18 02:09:04;;;;;;;16.27;10.80;;;;;;;18.04;100.00;100321.13;4964750;28;20031;-74
2023/09/18 02:11:30;;;;;;;15.40;10.73;;;;;;;18.06;100.00;100319.94;4964235;28;20035;-73
2023/09/18 02:13:56;;;;;;;13.90;9.88;;;;;;;18.08;100.00;100320.63;4965111;28;20045;-73
2023/09/18 02:16:23;;;;;;;14.65;10.05;;;;;;;18.08;100.00;100322.53;4980621;28;20476;-72
2023/09/18 02:18:50;;;;;;;17.25;11.10;;;;;;;18.08;100.00;100319.75;4964566;28;20039;-74
2023/09/18 02:21:22;;;;;;;13.57;9.48;;;;;;;18.09;100.00;100318.72;4949869;29;20498;-73
2023/09/18 02:23:51;;;;;;;17.08;10.60;;;;;;;18.12;100.00;100320.28;4968745;28;20051;-73
2023/09/18 02:26:17;;;;;;;19.05;11.30;;;;;;;18.15;100.00;100297.94;4967540;28;20035;-73
2023/09/18 02:28:43;;;;;;;19.25;10.52;;;;;;;18.17;100.00;100288.44;4950138;28;20423;-74
2023/09/18 02:31:08;;;;;;;19.58;10.63;;;;;;;18.17;100.00;100293.94;4980293;28;20097;-74
2023/09/18 02:33:33;;;;;;;14.52;10.00;;;;;;;18.18;100.00;100279.13;4964251;28;20043;-73
2023/09/18 02:35:59;;;;;;;12.52;9.05;;;;;;;18.17;100.00;100274.69;4949733;29;20039;-73
2023/09/18 02:38:24;;;;;;;17.58;9.40;;;;;;;18.17;100.00;100260.91;4981076;28;20458;-74
2023/09/18 02:40:51;;;;;;;15.13;9.48;;;;;;;18.14;100.00;100257.63;4950665;28;20031;-74
2023/09/18 02:43:16;;;;;;;11.38;8.80;;;;;;;18.12;100.00;100259.72;4980234;28;20046;-75
2023/09/18 02:45:41;;;;;;;14.70;9.30;;;;;;;18.10;100.00;100259.91;4948643;28;20031;-75
2023/09/18 02:48:07;;;;;;;13.93;9.40;;;;;;;18.12;100.00;100257.81;4963930;28;20554;-74
2023/09/18 02:50:32;;;;;;;15.18;9.15;;;;;;;18.14;100.00;100246.63;4964181;28;20119;-75
2023/09/18 02:52:58;;;;;;;15.25;9.50;;;;;;;18.18;100.00;100246.09;4980013;28;20093;-74
2023/09/18 02:55:23;;;;;;;14.25;9.30;;;;;;;18.17;100.00;100252.66;4980163;28;20042;-74
2023/09/18 02:57:48;;;;;;;15.95;10.13;;;;;;;18.18;100.00;100237.84;4980429;28;20043;-73
2023/09/18 03:00:14;;;;;;;16.90;9.63;;;;;;;18.17;100.00;100252.66;4979681;28;20057;-74
2023/09/18 03:02:39;;;;;;;17.45;9.95;;;;;;;18.16;100.00;100234.41;4964160;28;20844;-74
2023/09/18 03:05:06;;;;;;;17.08;9.65;;;;;;;18.15;100.00;100227.19;4963568;28;20039;-74
2023/09/18 03:07:31;;;;;;;14.73;8.73;;;;;;;18.20;100.00;100224.78;4980011;28;20121;-73
2023/09/18 03:09:57;;;;;;;16.02;8.82;;;;;;;18.18;100.00;100202.03;4979996;28;20130;-74
2023/09/18 03:12:22;;;;;;;15.15;9.00;;;;;;;18.21;100.00;100211.88;4964256;28;20042;-75
2023/09/18 03:14:48;;;;;;;21.63;9.63;;;;;;;18.22;100.00;100186.03;4963013;28;20035;-75
2023/09/18 03:17:13;;;;;;;12.20;8.35;;;;;;;18.22;100.00;100195.16;4949113;28;20106;-74
2023/09/18 03:19:39;;;;;;;15.68;8.30;;;;;;;18.20;100.00;100216.50;4979940;28;20044;-74
2023/09/18 03:22:04;;;;;;;17.95;8.70;;;;;;;18.18;100.00;100215.81;4980145;28;20024;-74
2023/09/18 03:24:30;;;;;;;14.25;8.07;;;;;;;18.19;100.00;100195.53;4979704;28;20351;-75
2023/09/18 03:26:55;;;;;;;18.90;8.80;;;;;;;18.15;100.00;100199.66;4963908;28;20043;-74
2023/09/18 03:29:21;;;;;;;16.38;8.38;;;;;;;18.12;100.00;100219.28;4964133;28;20035;-73
2023/09/18 03:31:46;;;;;;;15.75;7.95;;;;;;;18.16;100.00;100206.03;4979563;28;20546;-74
2023/09/18 03:34:13;;;;;;;13.10;8.60;;;;;;;18.18;100.00;100204.78;4963510;28;20499;-74
2023/09/18 03:36:39;;;;;;;16.40;8.70;;;;;;;18.21;100.00;100203.59;4979692;28;20500;-74
2023/09/18 03:39:05;;;;;;;20.25;8.65;;;;;;;18.21;100.00;100209.09;4963595;28;20054;-74
2023/09/18 03:41:34;;;;;;;11.10;8.15;;;;;;;18.20;100.00;100224.78;4979593;28;20035;-74
2023/09/18 03:44:00;;;;;;;12.40;7.88;;;;;;;18.23;100.00;100215.28;4979831;28;20035;-74
2023/09/18 03:46:26;;;;;;;13.95;8.20;;;;;;;18.27;100.00;100228.53;4979461;28;20487;-73
2023/09/18 03:48:52;;;;;;;21.17;8.65;;;;;;;18.32;100.00;100216.97;4999516;28;20126;-74
2023/09/18 03:51:18;;;;;;;17.52;9.18;;;;;;;18.44;100.00;100228.50;4996429;28;20054;-73
2023/09/18 03:53:44;;;;;;;16.77;8.48;;;;;;;18.49;100.00;100240.69;4948800;28;20130;-74
2023/09/18 03:56:09;;;;;;;18.75;9.50;;;;;;;18.60;100.00;100228.41;4963420;28;20587;-74
2023/09/18 03:58:35;;;;;;;18.35;8.27;;;;;;;18.69;100.00;100221.00;4966675;28;20078;-74
2023/09/18 04:01:01;;;;;;;16.35;8.82;;;;;;;18.73;100.00;100205.84;4966473;28;20054;-74
2023/09/18 04:03:27;;;;;;;19.10;8.85;;;;;;;18.73;100.00;100200.34;4983498;28;20043;-73
2023/09/18 04:05:52;;;;;;;18.55;7.93;;;;;;;18.74;100.00;100221.34;4983773;28;20035;-73
2023/09/18 04:08:18;;;;;;;16.75;8.60;;;;;;;18.70;100.00;100234.63;4982955;28;20039;-73
2023/09/18 04:10:44;;;;;;;15.93;8.18;;;;;;;18.71;100.00;100235.50;4966732;28;20047;-73
2023/09/18 04:13:10;;;;;;;15.43;8.05;;;;;;;18.70;100.00;100242.00;4952120;28;20031;-74
2023/09/18 04:15:37;;;;;;;13.80;8.32;;;;;;;18.72;100.00;100243.56;4951819;29;20483;-74
2023/09/18 04:18:05;;;;;;;15.63;9.02;;;;;;;18.73;100.00;100234.25;4966653;28;20035;-73
2023/09/18 04:20:30;;;;;;;16.05;9.10;;;;;;;18.77;100.00;100226.50;4982706;28;20035;-74
2023/09/18 04:23:21;;;;;;;15.07;8.75;;;;;;;18.81;100.00;100217.69;4952084;28;20091;-73
2023/09/18 04:25:48;;;;;;;13.70;8.70;;;;;;;18.81;100.00;100219.59;4966151;28;20039;-74
2023/09/18 04:28:14;;;;;;;16.40;8.32;;;;;;;18.80;100.00;100218.72;4950613;29;20129;-74
2023/09/18 04:30:40;;;;;;;17.50;8.77;;;;;;;18.83;100.00;100210.09;4951633;29;20042;-74
2023/09/18 04:33:06;;;;;;;19.33;8.82;;;;;;;18.82;100.00;100205.63;4982453;28;20039;-73
2023/09/18 04:35:31;;;;;;;16.33;8.38;;;;;;;18.79;100.00;100208.75;4950609;29;20380;-73
2023/09/18 04:37:58;;;;;;;23.85;8.40;;;;;;;18.78;100.00;100195.13;4982466;28;20031;-74
2023/09/18 04:40:24;;;;;;;17.00;8.57;;;;;;;18.78;100.00;100203.41;4969099;28;20442;-74
2023/09/18 04:42:50;;;;;;;12.77;8.73;;;;;;;18.76;100.00;100189.81;4985781;28;20031;-74
2023/09/18 04:45:16;;;;;;;19.65;9.48;;;;;;;18.79;100.00;100163.78;4989414;28;20491;-74
2023/09/18 04:47:42;;;;;;;14.48;8.10;;;;;;;18.81;100.00;100153.44;4966314;28;20042;-74
2023/09/18 04:50:09;;;;;;;14.00;9.02;;;;;;;18.78;100.00;100151.03;4982150;28;20043;-73
2023/09/18 04:52:35;;;;;;;16.00;8.95;;;;;;;18.73;100.00;100148.81;4959927;28;20475;-74
2023/09/18 04:55:00;;;;;;;13.43;9.23;;;;;;;18.69;100.00;100136.44;5001628;28;20037;-75
2023/09/18 04:57:25;;;;;;;12.50;8.15;;;;;;;18.64;100.00;100140.75;4951975;28;20553;-72
2023/09/18 04:59:51;;;;;;;15.30;8.38;;;;;;;18.57;100.00;100135.97;4965655;28;20510;-74
2023/09/18 05:02:16;;;;;;;14.35;8.68;;;;;;;18.54;100.00;100128.06;4981979;28;20646;-74
2023/09/18 05:04:42;;;;;;;14.25;8.90;;;;;;;18.47;100.00;100140.84;4950900;28;20056;-74
2023/09/18 05:07:07;;;;;;;15.90;8.80;;;;;;;18.48;100.00;100130.69;4968448;28;20113;-74
2023/09/18 05:09:34;;;;;;;13.77;8.18;;;;;;;18.46;100.00;100130.00;4949960;28;20499;-74
2023/09/18 05:12:00;;;;;;;17.77;9.05;;;;;;;18.44;100.00;100135.69;4965278;28;20511;-75
2023/09/18 05:14:25;;;;;;;16.52;8.68;;;;;;;18.41;100.00;100138.78;4982430;28;20033;-71
2023/09/18 05:16:51;;;;;;;20.88;9.60;;;;;;;18.39;100.00;100140.88;4982131;28;20023;-73
2023/09/18 05:19:16;;;;;;;15.68;9.98;;;;;;;18.36;100.00;100144.84;4950899;29;20035;-74
2023/09/18 05:21:42;;;;;;;19.70;9.77;;;;;;;18.38;100.00;100150.19;4982186;28;20046;-74
2023/09/18 05:24:07;;;;;;;22.02;9.98;;;;;;;18.36;100.00;100164.13;4981641;28;20470;-74
2023/09/18 05:26:33;;;;;;;17.38;9.73;;;;;;;18.39;100.00;100160.16;4965339;28;20035;-74
2023/09/18 05:28:59;;;;;;;11.73;8.38;;;;;;;18.36;100.00;100158.63;4950644;28;20380;-74
2023/09/18 05:31:24;;;;;;;13.45;7.68;;;;;;;18.36;100.00;100169.63;4981722;28;20051;-73
2023/09/18 05:33:50;;;;;;;11.32;5.50;;;;;;;18.35;100.00;100156.03;4968594;28;20031;-75
2023/09/18 05:36:16;;;;;;;8.98;5.80;;;;;;;18.35;100.00;100158.81;4965469;28;20035;-73
2023/09/18 05:38:43;;;;;;;10.43;5.60;;;;;;;18.36;100.00;100144.00;4965307;28;20035;-75
2023/09/18 05:41:09;;;;;;;10.73;4.95;;;;;;;18.37;100.00;100145.69;4954328;28;20491;-74
2023/09/18 05:43:35;;;;;;;9.98;4.57;;;;;;;18.38;100.00;100152.94;4950415;29;20046;-73
2023/09/18 05:46:01;;;;;;;10.23;5.35;;;;;;;18.35;100.00;100145.03;4949947;28;20396;-73
2023/09/18 05:48:26;;;;;;;7.53;4.05;;;;;;;18.34;100.00;100154.34;4950253;28;20050;-75
2023/09/18 05:50:54;;;;;;;8.95;3.92;;;;;;;18.34;100.00;100168.97;4958036;28;20034;-73
2023/09/18 05:53:19;;;;;;;6.00;3.95;;;;;;;18.32;100.00;100170.16;4954206;28;20058;-74
2023/09/18 05:55:45;;;;;;;6.47;4.07;;;;;;;18.32;100.00;100171.03;4950006;28;20479;-74
2023/09/18 05:58:10;;;;;;;5.55;3.58;;;;;;;18.31;100.00;100179.47;4965066;28;20046;-74
2023/09/18 06:00:36;;;;;;;7.28;3.63;;;;;;;18.35;100.00;100183.59;4949505;28;20043;-74
2023/09/18 06:03:02;;;;;;;5.35;3.08;;;;;;;18.38;100.00;100185.16;4980787;28;20085;-73
2023/09/18 06:05:30;;;;;;;7.03;3.30;;;;;;;18.36;100.00;100183.41;4950130;29;20031;-74
2023/09/18 06:07:56;;;;;;;6.38;3.08;;;;;;;18.34;100.00;100188.25;4964874;28;20046;-73
2023/09/18 06:10:21;;;;;;;5.85;2.47;;;;;;;18.34;100.00;100187.38;4980689;28;20472;-73
2023/09/18 06:12:46;;;;;;;3.65;2.35;;;;;;;18.31;100.00;100194.09;4949869;28;20420;-75
2023/09/18 06:15:12;;;;;;;7.25;2.42;;;;;;;18.30;100.00;100199.78;4949049;28;20117;-72
2023/09/18 06:17:42;;;;;;;5.90;2.17;;;;;;;18.31;100.00;100204.25;4964913;28;20102;-73
2023/09/18 06:20:09;;;;;;;8.95;2.38;;;;;;;18.30;100.00;100197.88;4949180;28;20138;-73
2023/09/18 06:22:39;;;;;;;4.60;2.05;;;;;;;18.30;100.00;100202.53;4966338;28;20039;-72
2023/09/18 06:25:06;;;;;;;6.07;2.30;;;;;;;18.26;100.00;100191.00;4968465;28;20042;-73
2023/09/18 06:27:35;;;;;;;3.67;2.00;;;;;;;18.27;100.00;100203.75;4958008;28;20039;-74
2023/09/18 06:30:01;;;;;;;6.35;2.00;;;;;;;18.27;100.00;100208.41;4949092;28;20046;-73
2023/09/18 06:32:26;;;;;;;7.68;2.00;;;;;;;18.23;100.00;100202.41;4980795;28;20031;-73
2023/09/18 06:34:52;;;;;;;6.85;1.80;;;;;;;18.24;100.00;100195.00;4980834;28;20460;-73
2023/09/18 06:37:18;;;;;;;3.45;2.10;;;;;;;18.24;100.00;100204.13;4952395;28;20035;-73
2023/09/18 06:39:43;;;;;;;4.68;2.20;;;;;;;18.27;100.00;100213.91;4999626;28;20505;-73
2023/09/18 06:42:09;;;;;;;5.57;2.38;;;;;;;18.28;100.00;100216.50;4959431;28;20043;-73
2023/09/18 06:44:34;;;;;;;6.18;2.10;;;;;;;18.28;100.00;100219.25;4946614;28;21873;-73
2023/09/18 06:47:00;;;;;;;4.05;1.83;;;;;;;18.34;100.00;100218.53;4947270;28;20039;-73
2023/09/18 06:49:25;;;;;;;7.00;1.90;;;;;;;18.37;100.00;100222.81;4965389;28;20099;-73
2023/09/18 06:51:50;;;;;;;5.50;2.03;;;;;;;18.41;100.00;100224.19;4965696;28;20042;-73
2023/09/18 06:54:16;;;;;;;8.32;2.25;;;;;;;18.46;100.00;100229.16;4980111;28;20078;-73
2023/09/18 06:56:43;;;;;;;5.70;2.00;;;;;;;18.52;100.00;100236.72;4958956;28;20032;-73
2023/09/18 06:59:08;;;;;;;5.45;2.00;;;;;;;18.55;100.00;100237.22;4962779;28;20040;-74
2023/09/18 07:01:34;;;;;;;4.60;1.90;;;;;;;18.59;100.00;100244.09;4968216;28;20066;-74
2023/09/18 07:03:59;;;;;;;4.82;1.88;;;;;;;18.61;100.00;100243.94;4967352;28;20042;-73
2023/09/18 07:06:25;;;;;;;6.40;2.42;;;;;;;18.65;100.00;100244.41;4968525;28;20541;-73
2023/09/18 07:08:50;;;;;;;5.38;1.90;;;;;;;18.64;100.00;100232.53;4984527;28;20031;-73
2023/09/18 07:11:16;;;;;;;2.63;1.70;;;;;;;18.68;100.00;100247.69;4951527;28;20074;-74
2023/09/18 07:13:43;;;;;;;3.03;2.03;;;;;;;18.65;100.00;100245.28;4966501;28;20512;-73
2023/09/18 07:16:09;;;;;;;5.18;1.92;;;;;;;18.68;100.00;100242.16;4966960;28;20043;-73
2023/09/18 07:18:34;;;;;;;4.88;2.30;;;;;;;18.70;100.00;100239.25;4964019;28;20058;-73
2023/09/18 07:21:00;;;;;;;4.38;2.10;;;;;;;18.72;100.00;100243.56;4967830;28;20046;-73
2023/09/18 07:23:25;;;;;;;5.13;1.85;;;;;;;18.75;100.00;100257.00;4988826;28;20689;-74
2023/09/18 07:25:50;;;;;;;4.03;2.17;;;;;;;18.76;100.00;100252.34;4996648;28;20402;-73
2023/09/18 07:28:17;;;;;;;4.10;2.28;;;;;;;18.78;100.00;100250.25;4967173;28;20082;-73
2023/09/18 07:30:46;;;;;;;3.90;2.40;;;;;;;18.79;100.00;100243.69;4958581;28;20475;-74
2023/09/18 07:33:15;;;;;;;5.40;1.90;;;;;;;18.82;100.00;100262.66;4955956;28;20084;-72
2023/09/18 07:35:41;;;;;;;5.22;2.15;;;;;;;18.85;100.00;100262.28;4967836;28;20039;-73
2023/09/18 07:38:06;;;;;;;3.40;2.20;;;;;;;18.90;100.00;100259.00;4965700;28;20039;-73
2023/09/18 07:40:33;;;;;;;4.15;1.90;;;;;;;18.93;100.00;100269.66;4960615;28;20530;-73
2023/09/18 07:42:58;;;;;;;4.22;2.30;;;;;;;18.96;100.00;100270.16;4952839;29;20046;-73
2023/09/18 07:45:24;;;;;;;7.38;2.30;;;;;;;18.98;100.00;100268.09;4966871;28;20089;-73
2023/09/18 07:47:49;;;;;;;8.15;2.20;;;;;;;19.01;100.00;100267.72;4964494;28;20097;-73
2023/09/18 07:50:14;;;;;;;7.05;2.10;;;;;;;19.02;100.00;100258.41;4967345;28;20109;-73
2023/09/18 07:52:40;;;;;;;4.10;2.40;;;;;;;19.04;100.00;100267.38;4952177;28;20423;-74
2023/09/18 07:55:06;;;;;;;5.50;1.98;;;;;;;19.13;100.00;100270.09;4982721;28;20553;-73
2023/09/18 07:57:34;;;;;;;4.85;2.17;;;;;;;19.17;100.00;100263.19;4993193;28;20030;-74
2023/09/18 08:00:06;;;;;;;6.03;2.83;;;;;;;19.18;100.00;100264.88;4967705;28;20057;-73
2023/09/18 08:02:37;;;;;;;3.75;1.80;;;;;;;19.19;100.00;100261.94;4971677;28;20039;-73
2023/09/18 08:05:04;;;;;;;6.65;2.10;;;;;;;19.19;100.00;100252.81;4971004;28;20058;-73
2023/09/18 08:07:30;;;;;;;6.97;2.17;;;;;;;19.23;100.00;100248.66;4998825;28;20043;-73
2023/09/18 08:09:56;;;;;;;4.22;2.00;;;;;;;19.24;100.00;100261.38;4969956;28;20462;-73
2023/09/18 08:12:22;;;;;;;4.35;2.13;;;;;;;19.24;100.00;100275.19;4958872;28;20034;-72
2023/09/18 08:14:49;;;;;;;6.88;2.17;;;;;;;19.24;100.00;100276.03;4962400;28;20035;-73
2023/09/18 08:17:15;;;;;;;2.47;1.85;;;;;;;19.22;100.00;100266.25;4953544;28;20054;-73
2023/09/18 08:19:40;;;;;;;6.45;1.88;;;;;;;19.23;100.00;100265.19;5002337;28;20022;-72
2023/09/18 08:22:06;;;;;;;10.98;2.30;;;;;;;19.25;100.00;100277.75;4978685;28;20058;-73
2023/09/18 08:24:31;;;;;;;3.80;2.05;;;;;;;19.31;100.00;100278.94;4966505;28;20125;-73
2023/09/18 08:26:57;;;;;;;5.05;2.22;;;;;;;19.35;100.00;100285.78;4988631;28;20566;-74
2023/09/18 08:29:22;;;;;;;4.43;2.05;;;;;;;19.38;100.00;100282.69;4965964;28;20038;-73
2023/09/18 08:31:50;;;;;;;3.20;1.88;;;;;;;19.38;100.00;100291.81;4963670;28;20035;-73
2023/09/18 08:34:15;;;;;;;7.45;2.00;;;;;;;19.42;100.00;100299.72;4966795;28;20047;-73
2023/09/18 08:36:41;;;;;;;4.93;2.10;;;;;;;19.43;100.00;100299.53;4964612;28;20050;-73
2023/09/18 08:39:06;;;;;;;5.63;1.80;;;;;;;19.44;99.99;100304.00;4964456;28;20035;-72
2023/09/18 08:41:32;;;;;;;4.28;2.15;;;;;;;19.42;99.94;100311.63;4984422;28;20089;-73
2023/09/18 08:44:01;;;;;;;2.40;1.90;;;;;;;19.41;99.01;100309.06;4970044;28;20462;-73
2023/09/18 08:46:26;;;;;;;3.30;1.90;;;;;;;19.42;100.00;100316.28;4968192;28;20098;-72
2023/09/18 08:48:53;;;;;;;3.75;1.80;;;;;;;19.50;100.00;100314.34;4994864;28;20042;-72
2023/09/18 08:51:19;;;;;;;3.08;1.80;;;;;;;19.57;100.00;100307.03;4965961;28;20474;-74
2023/09/18 08:53:45;;;;;;;2.15;1.60;;;;;;;19.58;98.27;100314.28;4968963;28;20039;-73
2023/09/18 08:56:13;;;;;;;3.08;1.85;;;;;;;19.65;98.40;100310.81;4970138;28;20043;-74
2023/09/18 08:58:42;;;;;;;6.22;2.17;;;;;;;19.68;98.21;100305.81;4971268;28;20046;-73
2023/09/18 09:01:09;;;;;;;5.22;2.30;;;;;;;19.77;97.36;100301.06;4984732;28;20059;-73
2023/09/18 09:03:42;;;;;;;9.18;1.75;;;;;;;19.83;98.22;100306.72;4958032;28;20043;-73
2023/09/18 09:06:09;;;;;;;3.78;1.92;;;;;;;19.86;97.28;100317.41;4970131;28;20198;-72
2023/09/18 09:08:35;;;;;;;8.60;2.40;;;;;;;19.85;96.68;100301.00;4961752;28;20026;-73
2023/09/18 09:11:01;;;;;;;5.32;2.30;;;;;;;19.96;97.09;100307.97;4995302;28;20494;-73
2023/09/18 09:13:27;;;;;;;2.83;2.08;;;;;;;20.06;96.11;100303.94;5000953;28;20034;-72
2023/09/18 09:15:55;;;;;;;3.50;1.98;;;;;;;20.14;96.26;100311.28;4967265;28;20146;-74
2023/09/18 09:18:22;;;;;;;6.20;2.33;;;;;;;20.17;94.41;100316.44;4955802;28;20059;-73
2023/09/18 09:21:03;;;;;;;5.93;2.55;;;;;;;20.29;95.45;100317.72;4963474;28;20193;-73
2023/09/18 09:23:30;;;;;;;6.13;2.55;;;;;;;20.51;95.13;100328.91;4990784;28;20043;-74
2023/09/18 09:26:13;;;;;;;5.30;2.30;;;;;;;20.68;94.49;100335.13;4970330;28;20043;-72
2023/09/18 09:28:39;;;;;;;6.88;2.70;;;;;;;20.78;93.16;100341.25;4953807;28;20436;-73
2023/09/18 09:31:05;;;;;;;5.47;2.38;;;;;;;20.85;92.17;100340.31;4972436;28;20040;-73
2023/09/18 09:33:31;;;;;;;11.05;2.83;;;;;;;20.93;90.77;100338.47;4965681;28;20509;-73
2023/09/18 09:35:57;;;;;;;6.43;2.45;;;;;;;21.05;91.88;100339.72;4970032;28;20039;-73
2023/09/18 09:38:33;;;;;;;10.60;2.80;;;;;;;21.03;91.99;100325.22;4985796;28;20545;-73
2023/09/18 09:41:00;;;;;;;5.63;2.90;;;;;;;21.05;90.09;100340.56;4951823;28;20399;-73
2023/09/18 09:43:27;;;;;;;10.25;2.58;;;;;;;21.03;90.71;100337.16;4957231;28;20023;-72
2023/09/18 09:46:00;;;;;;;5.85;2.30;;;;;;;21.10;93.41;100334.47;4960174;28;20039;-74
2023/09/18 09:48:26;;;;;;;4.70;2.67;;;;;;;21.16;90.75;100328.16;4960658;28;20046;-70
2023/09/18 09:50:55;;;;;;;4.30;2.50;;;;;;;21.18;89.88;100327.97;4981830;28;20395;-73
2023/09/18 09:53:44;;;;;;;8.27;2.40;;;;;;;21.31;91.48;100326.28;4968694;28;20027;-73
2023/09/18 09:56:10;;;;;;;5.47;2.53;;;;;;;21.33;87.30;100326.94;4962756;28;20507;-73
2023/09/18 09:58:35;;;;;;;6.55;2.78;;;;;;;21.40;88.11;100329.75;4966649;28;20094;-73
2023/09/18 10:01:08;;;;;;;4.20;2.40;;;;;;;21.47;88.41;100338.16;4968840;28;20109;-70
2023/09/18 10:03:36;;;;;;;6.22;2.58;;;;;;;21.54;88.96;100341.84;4965780;28;20070;-70
2023/09/18 10:06:05;;;;;;;5.43;2.75;;;;;;;21.48;86.19;100337.09;4962435;28;20101;-70
2023/09/18 10:08:32;;;;;;;7.22;2.65;;;;;;;21.45;87.21;100337.50;4959118;28;20188;-68
2023/09/18 10:11:10;;;;;;;6.10;2.40;;;;;;;21.43;86.70;100351.53;4966758;28;20038;-71
2023/09/18 10:14:07;;;;;;;7.40;2.45;;;;;;;21.58;88.64;100357.03;4959481;28;20089;-72
2023/09/18 10:16:36;;;;;;;6.65;3.08;;;;;;;21.75;83.87;100364.06;4999447;28;20066;-71
2023/09/18 10:19:11;;;;;;;7.47;2.20;;;;;;;22.00;83.71;100358.97;4954524;28;20045;-71
2023/09/18 10:22:00;;;;;;;3.85;2.50;;;;;;;22.12;82.64;100353.81;4954383;28;20447;-71
2023/09/18 10:24:31;;;;;;;8.20;2.92;;;;;;;22.10;81.66;100347.56;4950329;28;20065;-71
2023/09/18 10:26:58;;;;;;;6.35;2.70;;;;;;;22.21;83.09;100354.53;4966045;28;20481;-72
2023/09/18 10:29:25;;;;;;;4.85;2.40;;;;;;;22.36;85.04;100358.09;4956416;28;20027;-71
2023/09/18 10:31:52;;;;;;;9.15;2.78;;;;;;;22.33;81.09;100364.88;4966764;28;20054;-72
2023/09/18 10:34:18;;;;;;;4.85;2.45;;;;;;;22.21;80.14;100351.78;4994638;28;20038;-71
2023/09/18 10:36:46;;;;;;;4.20;2.65;;;;;;;22.13;81.71;100361.06;4967176;28;20513;-71
2023/09/18 10:39:12;;;;;;;6.07;2.42;;;;;;;22.10;82.41;100353.09;4963340;28;20066;-71
2023/09/18 10:41:39;;;;;;;4.22;2.50;;;;;;;22.06;82.35;100358.22;4967105;28;20451;-71
2023/09/18 10:44:06;;;;;;;5.80;2.70;;;;;;;22.02;83.06;100356.88;4967972;28;20491;-72
2023/09/18 10:46:32;;;;;;;5.80;2.47;;;;;;;22.04;83.72;100359.44;4961312;28;20496;-71
2023/09/18 10:48:59;;;;;;;5.30;2.65;;;;;;;21.94;83.05;100362.56;4985817;28;20049;-72
2023/09/18 10:51:25;;;;;;;5.47;3.05;;;;;;;21.85;83.61;100347.97;4954279;28;20054;-71
2023/09/18 10:53:52;;;;;;;4.70;3.08;;;;;;;21.86;82.40;100359.91;4957575;28;20431;-71
2023/09/18 10:56:20;;;;;;;9.13;3.70;;;;;;;21.83;81.83;100358.41;4967636;28;20483;-72
2023/09/18 10:58:45;;;;;;;6.72;3.75;;;;;;;21.69;81.44;100362.06;4975661;28;20085;-71
2023/09/18 11:01:14;;;;;;;5.82;3.70;;;;;;;21.73;84.93;100352.31;4963943;28;20047;-71
2023/09/18 11:03:41;;;;;;;7.45;3.47;;;;;;;21.80;83.40;100350.47;4970176;28;20609;-71
2023/09/18 11:06:14;;;;;;;6.43;3.47;;;;;;;21.85;81.92;100359.03;4965117;28;20039;-71
2023/09/18 11:08:53;;;;;;;7.57;3.50;;;;;;;21.93;82.44;100354.44;4968255;28;20069;-71
2023/09/18 11:11:25;;;;;;;7.50;3.40;;;;;;;22.07;81.24;100362.69;4966488;28;20091;-71